Bee Caves, Texas
Current Conditions -  °F | °C
As of 5:15 AM on Friday 28 Nov 2014 (Local Time) from KRYW Reporting Station
Scattered Clouds Scattered Clouds  
Wind Chill: 49°   Ceiling: Unl
Heat Index: 49°   Visibility: 10mi
Dew Point: 32°   Wind: 3mph
Humidity: 54%   Direction: 200°SSW
Pressure: 30.31"   Gusts: NA
Location:  30.3763°N, 97.9464°W
Report Text: KRYW 281115Z AUTO 20003KT 10SM SCT015 09/00 A3031 RMK AO2 T00920002
Loading
Personal Weather Stations






























Interactive Weather Map New forecast layout! Learn more

10-Day Weather Forecast

Advertisements
Track Severe Weather on mobile